Point Washington, Florida
Current Conditions -  °F | °C
As of 8:53 PM on Monday 20 Oct 2014 (Local Time) from KECP Reporting Station
Clear Clear  
Wind Chill: 65°   Ceiling: Unl
Heat Index: 65°   Visibility: 10mi
Dew Point: 61°   Wind: 5mph
Humidity: 87%   Direction: 320°NW
Pressure: 29.98"   Gusts: NA
Location:  30.37°N, 86.11°W
Report Text: KECP 210153Z 32004KT 10SM CLR 18/16 A2998 RMK AO2 SLP164 T01830161
Loading
Personal Weather Stations






























Interactive Weather Map
Tropical Storm Tracking
New forecast layout! Learn more

10-Day Weather Forecast

Advertisements
Track Severe Weather on mobile